sensor_id;sensor_type;location;lat;lon;timestamp;P1;durP1;ratioP1;P2;durP2;ratioP2
35592;SDS011;64447;52.140;5.602;2024-02-26T11:42:14;12.27;;;9.30;;
35592;SDS011;64447;52.140;5.602;2024-02-26T11:44:41;11.95;;;9.27;;
35592;SDS011;64447;52.140;5.602;2024-02-26T11:47:13;11.27;;;9.05;;
35592;SDS011;64447;52.140;5.602;2024-02-26T11:49:48;11.30;;;9.15;;
35592;SDS011;64447;52.140;5.602;2024-02-26T11:52:14;11.43;;;8.90;;
35592;SDS011;64447;52.140;5.602;2024-02-26T11:57:20;11.57;;;8.90;;
35592;SDS011;64447;52.140;5.602;2024-02-26T12:00:14;11.25;;;9.02;;
35592;SDS011;64447;52.140;5.602;2024-02-26T12:02:50;12.23;;;9.32;;
35592;SDS011;64447;52.140;5.602;2024-02-26T12:05:23;11.48;;;8.75;;
35592;SDS011;64447;52.140;5.602;2024-02-26T12:07:51;11.23;;;7.55;;
35592;SDS011;64447;52.140;5.602;2024-02-26T12:10:30;11.45;;;8.35;;
35592;SDS011;64447;52.140;5.602;2024-02-26T12:15:42;9.73;;;7.55;;
35592;SDS011;64447;52.140;5.602;2024-02-26T12:18:09;12.10;;;8.18;;
35592;SDS011;64447;52.140;5.602;2024-02-26T12:23:02;11.00;;;8.00;;
35592;SDS011;64447;52.140;5.602;2024-02-26T12:25:31;16.17;;;8.48;;
35592;SDS011;64447;52.140;5.602;2024-02-26T12:27:58;10.40;;;7.55;;
35592;SDS011;64447;52.140;5.602;2024-02-26T12:30:24;12.20;;;7.40;;
35592;SDS011;64447;52.140;5.602;2024-02-26T12:32:52;11.32;;;7.28;;
35592;SDS011;64447;52.140;5.602;2024-02-26T12:35:22;9.07;;;7.18;;
35592;SDS011;64447;52.140;5.602;2024-02-26T12:37:52;12.02;;;8.60;;
35592;SDS011;64447;52.140;5.602;2024-02-26T12:40:18;11.27;;;7.32;;
35592;SDS011;64447;52.140;5.602;2024-02-26T12:42:44;11.90;;;8.75;;
35592;SDS011;64447;52.140;5.602;2024-02-26T13:17:04;10.23;;;7.22;;
35592;SDS011;64447;52.140;5.602;2024-02-26T13:19:30;11.05;;;7.15;;
35592;SDS011;64447;52.140;5.602;2024-02-26T13:21:56;10.90;;;7.65;;
35592;SDS011;64447;52.140;5.602;2024-02-26T13:24:28;10.38;;;7.22;;
35592;SDS011;64447;52.140;5.602;2024-02-26T13:26:56;11.05;;;7.65;;
35592;SDS011;64447;52.140;5.602;2024-02-26T13:29:22;10.70;;;7.53;;
35592;SDS011;64447;52.140;5.602;2024-02-26T13:31:53;10.68;;;7.63;;
35592;SDS011;64447;52.140;5.602;2024-02-26T13:34:26;10.75;;;8.40;;
35592;SDS011;64447;52.140;5.602;2024-02-26T13:36:56;12.27;;;9.02;;
35592;SDS011;64447;52.140;5.602;2024-02-26T13:39:22;9.57;;;8.07;;
35592;SDS011;64447;52.140;5.602;2024-02-26T13:41:50;9.45;;;7.80;;
35592;SDS011;64447;52.140;5.602;2024-02-26T13:44:19;10.17;;;8.03;;
35592;SDS011;64447;52.140;5.602;2024-02-26T13:46:45;10.82;;;7.90;;
35592;SDS011;64447;52.140;5.602;2024-02-26T13:49:12;10.48;;;8.40;;
35592;SDS011;64447;52.140;5.602;2024-02-26T13:51:38;9.25;;;7.95;;
35592;SDS011;64447;52.140;5.602;2024-02-26T13:54:04;9.60;;;7.90;;
35592;SDS011;64447;52.140;5.602;2024-02-26T13:56:30;9.63;;;7.77;;
35592;SDS011;64447;52.140;5.602;2024-02-26T13:58:56;9.20;;;8.18;;
35592;SDS011;64447;52.140;5.602;2024-02-26T14:01:22;9.95;;;7.80;;
35592;SDS011;64447;52.140;5.602;2024-02-26T14:03:47;9.87;;;8.00;;
35592;SDS011;64447;52.140;5.602;2024-02-26T14:06:13;9.95;;;8.05;;
35592;SDS011;64447;52.140;5.602;2024-02-26T14:08:39;9.55;;;8.00;;
35592;SDS011;64447;52.140;5.602;2024-02-26T14:11:05;9.13;;;7.80;;
35592;SDS011;64447;52.140;5.602;2024-02-26T14:13:31;9.30;;;7.70;;
35592;SDS011;64447;52.140;5.602;2024-02-26T14:15:57;10.40;;;8.32;;
35592;SDS011;64447;52.140;5.602;2024-02-26T14:18:23;9.25;;;7.45;;
35592;SDS011;64447;52.140;5.602;2024-02-26T14:20:49;9.45;;;7.80;;
35592;SDS011;64447;52.140;5.602;2024-02-26T14:23:15;9.52;;;6.93;;
35592;SDS011;64447;52.140;5.602;2024-02-26T14:25:40;8.57;;;6.77;;
35592;SDS011;64447;52.140;5.602;2024-02-26T14:28:06;9.10;;;7.03;;
35592;SDS011;64447;52.140;5.602;2024-02-26T14:30:31;7.95;;;6.30;;
35592;SDS011;64447;52.140;5.602;2024-02-26T14:32:57;8.38;;;6.70;;
35592;SDS011;64447;52.140;5.602;2024-02-26T14:35:23;7.50;;;6.30;;
35592;SDS011;64447;52.140;5.602;2024-02-26T14:37:50;7.82;;;6.03;;
35592;SDS011;64447;52.140;5.602;2024-02-26T14:40:16;7.78;;;6.40;;
35592;SDS011;64447;52.140;5.602;2024-02-26T14:42:42;7.78;;;6.38;;
35592;SDS011;64447;52.140;5.602;2024-02-26T14:45:09;8.02;;;6.32;;
35592;SDS011;64447;52.140;5.602;2024-02-26T14:47:36;7.68;;;5.97;;
35592;SDS011;64447;52.140;5.602;2024-02-26T14:50:02;6.93;;;5.32;;
35592;SDS011;64447;52.140;5.602;2024-02-26T14:52:28;7.45;;;5.90;;
35592;SDS011;64447;52.140;5.602;2024-02-26T14:54:53;6.93;;;5.78;;
35592;SDS011;64447;52.140;5.602;2024-02-26T14:57:19;7.90;;;6.00;;
35592;SDS011;64447;52.140;5.602;2024-02-26T14:59:45;7.70;;;5.53;;
35592;SDS011;64447;52.140;5.602;2024-02-26T15:02:10;6.15;;;5.47;;
35592;SDS011;64447;52.140;5.602;2024-02-26T15:04:36;6.97;;;5.55;;
35592;SDS011;64447;52.140;5.602;2024-02-26T15:07:02;6.63;;;5.70;;
35592;SDS011;64447;52.140;5.602;2024-02-26T15:09:28;6.30;;;5.38;;
35592;SDS011;64447;52.140;5.602;2024-02-26T15:11:54;6.32;;;5.20;;
35592;SDS011;64447;52.140;5.602;2024-02-26T15:14:22;6.55;;;5.13;;
35592;SDS011;64447;52.140;5.602;2024-02-26T15:16:48;6.03;;;5.28;;
35592;SDS011;64447;52.140;5.602;2024-02-26T15:19:14;6.07;;;5.47;;
35592;SDS011;64447;52.140;5.602;2024-02-26T15:21:43;6.15;;;5.32;;
35592;SDS011;64447;52.140;5.602;2024-02-26T15:24:10;5.47;;;4.90;;
35592;SDS011;64447;52.140;5.602;2024-02-26T15:26:36;6.97;;;5.40;;
35592;SDS011;64447;52.140;5.602;2024-02-26T15:29:02;7.03;;;5.03;;
35592;SDS011;64447;52.140;5.602;2024-02-26T15:31:28;6.20;;;5.50;;
35592;SDS011;64447;52.140;5.602;2024-02-26T15:33:54;6.32;;;5.13;;
35592;SDS011;64447;52.140;5.602;2024-02-26T15:36:19;6.77;;;5.60;;
35592;SDS011;64447;52.140;5.602;2024-02-26T15:38:45;7.57;;;5.60;;
35592;SDS011;64447;52.140;5.602;2024-02-26T15:41:11;6.65;;;5.53;;
35592;SDS011;64447;52.140;5.602;2024-02-26T15:43:38;6.82;;;5.60;;
35592;SDS011;64447;52.140;5.602;2024-02-26T15:46:05;7.32;;;5.82;;
35592;SDS011;64447;52.140;5.602;2024-02-26T15:48:31;7.20;;;6.03;;
35592;SDS011;64447;52.140;5.602;2024-02-26T15:50:57;6.72;;;5.78;;
35592;SDS011;64447;52.140;5.602;2024-02-26T15:53:23;7.30;;;6.00;;
35592;SDS011;64447;52.140;5.602;2024-02-26T15:55:49;7.97;;;5.88;;
35592;SDS011;64447;52.140;5.602;2024-02-26T15:58:15;7.97;;;6.40;;
35592;SDS011;64447;52.140;5.602;2024-02-26T16:00:41;7.87;;;5.93;;
35592;SDS011;64447;52.140;5.602;2024-02-26T16:03:10;8.90;;;6.47;;
35592;SDS011;64447;52.140;5.602;2024-02-26T16:05:37;7.30;;;6.32;;
35592;SDS011;64447;52.140;5.602;2024-02-26T16:08:05;7.45;;;6.20;;
35592;SDS011;64447;52.140;5.602;2024-02-26T16:10:35;8.90;;;6.50;;
35592;SDS011;64447;52.140;5.602;2024-02-26T16:13:01;9.07;;;6.22;;
35592;SDS011;64447;52.140;5.602;2024-02-26T16:15:27;7.43;;;6.60;;
35592;SDS011;64447;52.140;5.602;2024-02-26T16:17:54;10.07;;;6.83;;
35592;SDS011;64447;52.140;5.602;2024-02-26T16:20:23;9.73;;;6.90;;
35592;SDS011;64447;52.140;5.602;2024-02-26T16:22:50;9.32;;;6.90;;
35592;SDS011;64447;52.140;5.602;2024-02-26T16:25:16;9.20;;;7.20;;
35592;SDS011;64447;52.140;5.602;2024-02-26T16:27:44;10.30;;;7.70;;
35592;SDS011;64447;52.140;5.602;2024-02-26T16:30:11;10.97;;;7.70;;
35592;SDS011;64447;52.140;5.602;2024-02-26T16:32:38;10.10;;;7.38;;
35592;SDS011;64447;52.140;5.602;2024-02-26T16:35:05;10.07;;;7.93;;
35592;SDS011;64447;52.140;5.602;2024-02-26T16:37:31;9.45;;;7.88;;
35592;SDS011;64447;52.140;5.602;2024-02-26T16:39:58;9.63;;;7.72;;
35592;SDS011;64447;52.140;5.602;2024-02-26T16:42:25;12.07;;;7.82;;
35592;SDS011;64447;52.140;5.602;2024-02-26T16:44:51;10.67;;;8.13;;
35592;SDS011;64447;52.140;5.602;2024-02-26T16:47:17;11.63;;;7.90;;
35592;SDS011;64447;52.140;5.602;2024-02-26T16:49:43;9.70;;;7.63;;
35592;SDS011;64447;52.140;5.602;2024-02-26T16:52:10;11.03;;;8.53;;
35592;SDS011;64447;52.140;5.602;2024-02-26T16:54:36;10.88;;;8.60;;
35592;SDS011;64447;52.140;5.602;2024-02-26T16:57:02;11.03;;;8.87;;
35592;SDS011;64447;52.140;5.602;2024-02-26T16:59:28;10.57;;;8.80;;
35592;SDS011;64447;52.140;5.602;2024-02-26T17:01:54;11.03;;;8.37;;
35592;SDS011;64447;52.140;5.602;2024-02-26T17:04:23;11.35;;;8.45;;
35592;SDS011;64447;52.140;5.602;2024-02-26T17:06:49;10.87;;;8.90;;
35592;SDS011;64447;52.140;5.602;2024-02-26T17:09:18;11.10;;;8.60;;
35592;SDS011;64447;52.140;5.602;2024-02-26T17:11:44;12.52;;;8.93;;
35592;SDS011;64447;52.140;5.602;2024-02-26T17:14:11;28.60;;;20.90;;
35592;SDS011;64447;52.140;5.602;2024-02-26T17:16:40;18.05;;;13.48;;
35592;SDS011;64447;52.140;5.602;2024-02-26T17:19:06;13.77;;;9.82;;
35592;SDS011;64447;52.140;5.602;2024-02-26T17:21:32;13.52;;;9.48;;
35592;SDS011;64447;52.140;5.602;2024-02-26T17:23:58;12.93;;;9.27;;
35592;SDS011;64447;52.140;5.602;2024-02-26T17:26:25;14.38;;;9.88;;
35592;SDS011;64447;52.140;5.602;2024-02-26T17:28:51;14.15;;;10.82;;
35592;SDS011;64447;52.140;5.602;2024-02-26T17:31:17;14.25;;;10.23;;
35592;SDS011;64447;52.140;5.602;2024-02-26T17:33:44;14.35;;;10.23;;
35592;SDS011;64447;52.140;5.602;2024-02-26T17:36:10;13.63;;;9.63;;
35592;SDS011;64447;52.140;5.602;2024-02-26T17:38:35;13.90;;;9.53;;
35592;SDS011;64447;52.140;5.602;2024-02-26T17:41:02;14.45;;;10.25;;
35592;SDS011;64447;52.140;5.602;2024-02-26T17:43:32;11.23;;;8.52;;
35592;SDS011;64447;52.140;5.602;2024-02-26T17:45:58;15.20;;;10.05;;
35592;SDS011;64447;52.140;5.602;2024-02-26T17:48:24;12.00;;;8.15;;
35592;SDS011;64447;52.140;5.602;2024-02-26T17:50:50;14.95;;;8.90;;
35592;SDS011;64447;52.140;5.602;2024-02-26T17:53:15;12.20;;;8.23;;
35592;SDS011;64447;52.140;5.602;2024-02-26T17:55:42;12.70;;;8.48;;
35592;SDS011;64447;52.140;5.602;2024-02-26T17:58:08;12.93;;;8.80;;
35592;SDS011;64447;52.140;5.602;2024-02-26T18:00:34;10.70;;;7.38;;
35592;SDS011;64447;52.140;5.602;2024-02-26T18:03:01;13.40;;;8.93;;
35592;SDS011;64447;52.140;5.602;2024-02-26T18:05:27;11.77;;;7.93;;
35592;SDS011;64447;52.140;5.602;2024-02-26T18:07:52;12.93;;;8.27;;
35592;SDS011;64447;52.140;5.602;2024-02-26T18:10:18;12.00;;;7.93;;
35592;SDS011;64447;52.140;5.602;2024-02-26T18:12:44;15.63;;;8.70;;
35592;SDS011;64447;52.140;5.602;2024-02-26T18:15:10;10.73;;;7.43;;
35592;SDS011;64447;52.140;5.602;2024-02-26T18:17:37;12.68;;;7.93;;
35592;SDS011;64447;52.140;5.602;2024-02-26T18:20:03;14.18;;;8.00;;
35592;SDS011;64447;52.140;5.602;2024-02-26T18:22:30;11.57;;;7.43;;
35592;SDS011;64447;52.140;5.602;2024-02-26T18:24:56;11.60;;;7.65;;
35592;SDS011;64447;52.140;5.602;2024-02-26T18:27:22;10.50;;;7.75;;
35592;SDS011;64447;52.140;5.602;2024-02-26T18:29:48;10.88;;;7.15;;
35592;SDS011;64447;52.140;5.602;2024-02-26T18:32:14;12.35;;;7.30;;
35592;SDS011;64447;52.140;5.602;2024-02-26T18:34:41;11.98;;;7.90;;
35592;SDS011;64447;52.140;5.602;2024-02-26T18:37:07;11.18;;;7.22;;
35592;SDS011;64447;52.140;5.602;2024-02-26T18:39:33;8.75;;;6.50;;
35592;SDS011;64447;52.140;5.602;2024-02-26T18:41:58;10.75;;;6.95;;
35592;SDS011;64447;52.140;5.602;2024-02-26T18:44:24;10.05;;;6.75;;
35592;SDS011;64447;52.140;5.602;2024-02-26T18:46:50;10.43;;;7.18;;
35592;SDS011;64447;52.140;5.602;2024-02-26T18:49:15;8.55;;;6.63;;
35592;SDS011;64447;52.140;5.602;2024-02-26T18:51:41;11.27;;;8.23;;
35592;SDS011;64447;52.140;5.602;2024-02-26T18:54:07;12.25;;;7.72;;
35592;SDS011;64447;52.140;5.602;2024-02-26T18:56:33;10.48;;;6.72;;
35592;SDS011;64447;52.140;5.602;2024-02-26T18:58:59;10.40;;;7.35;;
35592;SDS011;64447;52.140;5.602;2024-02-26T19:01:28;10.60;;;7.43;;
35592;SDS011;64447;52.140;5.602;2024-02-26T19:03:54;10.65;;;7.35;;
35592;SDS011;64447;52.140;5.602;2024-02-26T19:06:20;10.88;;;7.47;;
35592;SDS011;64447;52.140;5.602;2024-02-26T19:08:46;11.32;;;7.93;;
35592;SDS011;64447;52.140;5.602;2024-02-26T19:11:12;9.75;;;7.45;;
35592;SDS011;64447;52.140;5.602;2024-02-26T19:13:37;10.38;;;7.03;;
35592;SDS011;64447;52.140;5.602;2024-02-26T19:16:06;11.45;;;8.18;;
35592;SDS011;64447;52.140;5.602;2024-02-26T19:18:32;12.70;;;7.43;;
35592;SDS011;64447;52.140;5.602;2024-02-26T19:21:00;10.75;;;7.32;;
35592;SDS011;64447;52.140;5.602;2024-02-26T19:23:26;11.15;;;7.47;;
35592;SDS011;64447;52.140;5.602;2024-02-26T19:25:51;11.07;;;8.25;;
35592;SDS011;64447;52.140;5.602;2024-02-26T19:28:17;11.75;;;7.32;;
35592;SDS011;64447;52.140;5.602;2024-02-26T19:30:43;12.88;;;7.63;;
35592;SDS011;64447;52.140;5.602;2024-02-26T19:33:08;10.68;;;8.00;;
35592;SDS011;64447;52.140;5.602;2024-02-26T19:35:37;9.50;;;7.15;;
35592;SDS011;64447;52.140;5.602;2024-02-26T19:38:03;9.73;;;7.35;;
35592;SDS011;64447;52.140;5.602;2024-02-26T19:40:29;10.40;;;7.47;;
35592;SDS011;64447;52.140;5.602;2024-02-26T19:42:55;10.85;;;7.47;;
35592;SDS011;64447;52.140;5.602;2024-02-26T19:45:20;14.52;;;9.13;;
35592;SDS011;64447;52.140;5.602;2024-02-26T19:47:47;12.63;;;7.45;;
35592;SDS011;64447;52.140;5.602;2024-02-26T19:50:13;12.32;;;8.70;;
35592;SDS011;64447;52.140;5.602;2024-02-26T19:52:38;11.15;;;7.95;;
35592;SDS011;64447;52.140;5.602;2024-02-26T19:55:04;12.80;;;8.35;;
35592;SDS011;64447;52.140;5.602;2024-02-26T19:57:30;10.38;;;8.15;;
35592;SDS011;64447;52.140;5.602;2024-02-26T19:59:56;13.25;;;8.90;;
35592;SDS011;64447;52.140;5.602;2024-02-26T20:02:22;12.85;;;8.50;;
35592;SDS011;64447;52.140;5.602;2024-02-26T20:04:48;12.85;;;8.38;;
35592;SDS011;64447;52.140;5.602;2024-02-26T20:07:13;12.90;;;8.75;;
35592;SDS011;64447;52.140;5.602;2024-02-26T20:09:40;13.55;;;9.25;;
35592;SDS011;64447;52.140;5.602;2024-02-26T20:12:06;12.18;;;8.48;;
35592;SDS011;64447;52.140;5.602;2024-02-26T20:14:33;12.38;;;9.35;;
35592;SDS011;64447;52.140;5.602;2024-02-26T20:17:00;13.23;;;9.05;;
35592;SDS011;64447;52.140;5.602;2024-02-26T20:19:26;13.35;;;8.18;;
35592;SDS011;64447;52.140;5.602;2024-02-26T20:21:52;15.68;;;9.70;;
35592;SDS011;64447;52.140;5.602;2024-02-26T20:24:18;15.45;;;9.82;;
35592;SDS011;64447;52.140;5.602;2024-02-26T20:26:44;13.88;;;9.68;;
35592;SDS011;64447;52.140;5.602;2024-02-26T20:29:14;15.73;;;9.40;;
35592;SDS011;64447;52.140;5.602;2024-02-26T20:31:42;15.05;;;9.73;;
35592;SDS011;64447;52.140;5.602;2024-02-26T20:34:08;15.10;;;9.38;;
35592;SDS011;64447;52.140;5.602;2024-02-26T20:36:34;13.90;;;8.95;;
35592;SDS011;64447;52.140;5.602;2024-02-26T20:39:00;15.88;;;9.32;;
35592;SDS011;64447;52.140;5.602;2024-02-26T20:41:27;12.88;;;9.32;;
35592;SDS011;64447;52.140;5.602;2024-02-26T20:43:53;13.45;;;9.45;;
35592;SDS011;64447;52.140;5.602;2024-02-26T20:46:20;14.05;;;9.68;;
35592;SDS011;64447;52.140;5.602;2024-02-26T20:48:48;14.85;;;9.77;;
35592;SDS011;64447;52.140;5.602;2024-02-26T20:51:13;14.02;;;9.45;;
35592;SDS011;64447;52.140;5.602;2024-02-26T20:53:39;13.48;;;8.68;;
35592;SDS011;64447;52.140;5.602;2024-02-26T20:56:06;15.15;;;10.77;;
35592;SDS011;64447;52.140;5.602;2024-02-26T20:58:32;14.05;;;9.30;;
35592;SDS011;64447;52.140;5.602;2024-02-26T21:00:59;15.60;;;9.30;;
35592;SDS011;64447;52.140;5.602;2024-02-26T21:03:25;13.52;;;9.30;;
35592;SDS011;64447;52.140;5.602;2024-02-26T21:05:54;15.00;;;9.95;;
35592;SDS011;64447;52.140;5.602;2024-02-26T21:08:19;14.05;;;9.73;;
35592;SDS011;64447;52.140;5.602;2024-02-26T21:10:45;14.35;;;10.07;;
35592;SDS011;64447;52.140;5.602;2024-02-26T21:13:16;19.45;;;11.35;;
35592;SDS011;64447;52.140;5.602;2024-02-26T21:15:42;14.18;;;9.80;;
35592;SDS011;64447;52.140;5.602;2024-02-26T21:18:08;16.40;;;10.32;;
35592;SDS011;64447;52.140;5.602;2024-02-26T21:20:34;14.50;;;9.98;;
35592;SDS011;64447;52.140;5.602;2024-02-26T21:23:00;13.82;;;10.07;;
35592;SDS011;64447;52.140;5.602;2024-02-26T21:25:26;18.05;;;10.32;;
35592;SDS011;64447;52.140;5.602;2024-02-26T21:27:52;15.32;;;10.85;;
35592;SDS011;64447;52.140;5.602;2024-02-26T21:30:17;14.32;;;10.43;;
35592;SDS011;64447;52.140;5.602;2024-02-26T21:32:43;16.83;;;10.80;;
35592;SDS011;64447;52.140;5.602;2024-02-26T21:35:09;15.57;;;10.52;;
35592;SDS011;64447;52.140;5.602;2024-02-26T21:37:35;15.63;;;10.18;;
35592;SDS011;64447;52.140;5.602;2024-02-26T21:40:01;16.92;;;10.57;;
35592;SDS011;64447;52.140;5.602;2024-02-26T21:42:27;17.90;;;10.65;;
35592;SDS011;64447;52.140;5.602;2024-02-26T21:44:53;15.70;;;10.38;;
35592;SDS011;64447;52.140;5.602;2024-02-26T21:47:19;18.40;;;11.60;;
35592;SDS011;64447;52.140;5.602;2024-02-26T21:49:44;14.63;;;10.82;;
35592;SDS011;64447;52.140;5.602;2024-02-26T21:52:10;18.75;;;11.18;;
35592;SDS011;64447;52.140;5.602;2024-02-26T21:54:36;16.42;;;10.90;;
35592;SDS011;64447;52.140;5.602;2024-02-26T21:57:11;16.85;;;11.20;;
35592;SDS011;64447;52.140;5.602;2024-02-26T21:59:36;21.60;;;11.88;;
35592;SDS011;64447;52.140;5.602;2024-02-26T22:02:02;16.67;;;11.45;;
35592;SDS011;64447;52.140;5.602;2024-02-26T22:04:28;17.10;;;11.90;;
35592;SDS011;64447;52.140;5.602;2024-02-26T22:06:53;17.02;;;11.98;;
35592;SDS011;64447;52.140;5.602;2024-02-26T22:09:19;16.80;;;11.73;;
35592;SDS011;64447;52.140;5.602;2024-02-26T22:11:45;18.45;;;11.75;;
35592;SDS011;64447;52.140;5.602;2024-02-26T22:14:13;16.95;;;11.07;;
35592;SDS011;64447;52.140;5.602;2024-02-26T22:16:38;18.02;;;11.73;;
35592;SDS011;64447;52.140;5.602;2024-02-26T22:19:04;15.95;;;11.40;;
35592;SDS011;64447;52.140;5.602;2024-02-26T22:21:33;18.48;;;11.75;;
35592;SDS011;64447;52.140;5.602;2024-02-26T22:24:00;17.33;;;10.57;;
35592;SDS011;64447;52.140;5.602;2024-02-26T22:26:27;16.80;;;10.93;;
35592;SDS011;64447;52.140;5.602;2024-02-26T22:28:52;14.98;;;10.68;;
35592;SDS011;64447;52.140;5.602;2024-02-26T22:31:18;16.92;;;11.45;;
35592;SDS011;64447;52.140;5.602;2024-02-26T22:33:44;19.63;;;12.02;;
35592;SDS011;64447;52.140;5.602;2024-02-26T22:36:10;16.10;;;10.50;;
35592;SDS011;64447;52.140;5.602;2024-02-26T22:38:36;17.00;;;10.57;;
35592;SDS011;64447;52.140;5.602;2024-02-26T22:41:02;18.08;;;11.40;;
35592;SDS011;64447;52.140;5.602;2024-02-26T22:43:29;17.80;;;11.60;;
35592;SDS011;64447;52.140;5.602;2024-02-26T22:45:55;18.05;;;12.10;;
35592;SDS011;64447;52.140;5.602;2024-02-26T22:48:21;16.92;;;11.70;;
35592;SDS011;64447;52.140;5.602;2024-02-26T22:50:47;18.30;;;11.50;;
35592;SDS011;64447;52.140;5.602;2024-02-26T22:53:13;15.73;;;11.25;;
35592;SDS011;64447;52.140;5.602;2024-02-26T22:55:38;16.58;;;11.05;;
